Toto, Indiana
Current Conditions -  °F | °C
As of 10:15 PM on Wednesday 26 Nov 2014 (Local Time) from KOXI Reporting Station
Clear Clear  
Wind Chill: 18°   Ceiling: Unl
Heat Index: 24°   Visibility: 7mi
Dew Point: 20°   Wind: 5mph
Humidity: 86%   Direction: 330°NNW
Pressure: 30.14"   Gusts: NA
Location:  41.2954°N, 86.6039°W
Report Text: KOXI 270415Z AUTO 33004KT 7SM CLR M05/M07 A3014 RMK AO1 T10471067
Loading
Personal Weather Stations






























Interactive Weather Map New forecast layout! Learn more

10-Day Weather Forecast

Advertisements
Track Severe Weather on mobile